createdAt,value
2023-04-14T00:04:57.223Z,8.88
2023-04-14T00:10:04.811Z,8.84
2023-04-14T00:15:14.011Z,8.84
2023-04-14T00:20:21.423Z,8.83
2023-04-14T00:25:29.073Z,8.83
2023-04-14T00:30:36.379Z,8.89
2023-04-14T00:35:44.047Z,8.92
2023-04-14T00:40:51.916Z,8.94
2023-04-14T00:46:02.712Z,8.95
2023-04-14T00:51:11.869Z,8.95
2023-04-14T00:56:19.497Z,8.96
2023-04-14T01:01:27.673Z,8.95
2023-04-14T01:06:36.211Z,8.89
2023-04-14T01:11:55.869Z,8.85
2023-04-14T01:17:15.029Z,8.83
2023-04-14T01:22:28.293Z,8.80
2023-04-14T01:27:45.086Z,8.78
2023-04-14T01:32:55.239Z,8.78
2023-04-14T01:38:10.148Z,8.76
2023-04-14T01:43:18.894Z,8.74
2023-04-14T01:48:27.730Z,8.71
2023-04-14T01:53:37.821Z,8.56
2023-04-14T01:58:46.993Z,8.39
2023-04-14T02:03:55.080Z,8.27
2023-04-14T02:09:04.104Z,8.16
2023-04-14T02:14:12.493Z,8.11
2023-04-14T02:19:23.221Z,8.10
2023-04-14T02:24:31.297Z,8.18
2023-04-14T02:29:42.213Z,8.27
2023-04-14T02:34:53.923Z,8.29
2023-04-14T02:40:09.123Z,8.34
2023-04-14T02:45:22.669Z,8.42
2023-04-14T02:50:32.210Z,8.51
2023-04-14T02:55:40.558Z,8.52
2023-04-14T03:00:50.506Z,8.54
2023-04-14T03:05:58.714Z,8.53
2023-04-14T03:11:08.689Z,8.51
2023-04-14T03:16:17.177Z,8.56
2023-04-14T03:21:25.509Z,8.60
2023-04-14T03:26:37.110Z,8.61
2023-04-14T03:31:46.321Z,8.62
2023-04-14T03:36:57.032Z,8.62
2023-04-14T03:42:06.119Z,8.65
2023-04-14T03:47:16.088Z,8.68
2023-04-14T03:52:26.918Z,8.68
2023-04-14T03:57:35.437Z,8.65
2023-04-14T04:02:43.937Z,8.60
2023-04-14T04:07:53.554Z,8.57
2023-04-14T04:13:02.854Z,8.60
2023-04-14T04:18:12.656Z,8.61
2023-04-14T04:23:23.171Z,8.61
2023-04-14T04:28:31.574Z,8.62
2023-04-14T04:33:39.700Z,8.60
2023-04-14T04:38:50.186Z,8.60
2023-04-14T04:43:59.492Z,8.64
2023-04-14T04:49:06.891Z,8.67
2023-04-14T04:54:14.973Z,8.69
2023-04-14T04:59:22.172Z,8.73
2023-04-14T05:04:29.718Z,8.76
2023-04-14T05:09:37.406Z,8.76
2023-04-14T05:14:45.366Z,8.79
2023-04-14T05:19:53.772Z,8.83
2023-04-14T05:25:01.795Z,8.86
2023-04-14T05:30:11.643Z,8.89
2023-04-14T05:35:19.666Z,8.93
2023-04-14T05:40:30.660Z,9.01
2023-04-14T05:45:39.286Z,9.11
2023-04-14T05:50:47.300Z,9.12
2023-04-14T05:55:57.626Z,9.12
2023-04-14T06:01:05.523Z,9.22
2023-04-14T06:06:13.133Z,9.32
2023-04-14T06:11:20.847Z,9.43
2023-04-14T06:16:28.757Z,9.51
2023-04-14T06:21:36.003Z,9.60
2023-04-14T06:26:43.563Z,9.73
2023-04-14T06:31:52.115Z,9.95
2023-04-14T06:37:02.905Z,10.15
2023-04-14T06:42:13.442Z,10.32
2023-04-14T06:47:22.732Z,10.45
2023-04-14T06:52:30.389Z,10.56
2023-04-14T06:57:37.945Z,10.67
2023-04-14T07:02:45.569Z,10.72
2023-04-14T07:07:53.599Z,10.80
2023-04-14T07:13:01.241Z,10.86
2023-04-14T07:18:09.756Z,11.02
2023-04-14T07:23:17.362Z,11.20
2023-04-14T07:28:26.091Z,11.42
2023-04-14T07:33:34.952Z,11.65
2023-04-14T07:38:44.088Z,11.83
2023-04-14T07:43:55.750Z,11.99
2023-04-14T07:49:03.357Z,12.14
2023-04-14T07:54:11.491Z,12.28
2023-04-14T07:59:19.248Z,12.46
2023-04-14T08:04:28.011Z,12.47
2023-04-14T08:09:36.152Z,12.50
2023-04-14T08:14:43.920Z,12.60
2023-04-14T08:19:51.749Z,12.65
2023-04-14T08:24:59.317Z,12.70
2023-04-14T08:30:09.585Z,12.77
2023-04-14T08:35:35.540Z,12.85
2023-04-14T08:40:49.317Z,12.88
2023-04-14T08:45:59.519Z,13.03
2023-04-14T08:51:15.837Z,13.17
2023-04-14T08:56:27.379Z,13.30
2023-04-14T09:01:37.196Z,13.49
2023-04-14T09:06:44.698Z,13.60
2023-04-14T09:11:53.124Z,13.71
2023-04-14T09:17:00.890Z,13.79
2023-04-14T09:22:09.651Z,13.90
2023-04-14T09:27:17.865Z,14.01
2023-04-14T09:32:25.176Z,14.13
2023-04-14T09:37:45.383Z,14.26
2023-04-14T09:42:52.839Z,14.38
2023-04-14T09:54:04.441Z,14.78
2023-04-14T09:59:10.215Z,14.89
2023-04-14T10:04:23.972Z,14.96
2023-04-14T10:09:30.911Z,15.06
2023-04-14T10:14:35.814Z,15.15
2023-04-14T10:19:39.884Z,15.26
2023-04-14T10:24:43.914Z,15.40
2023-04-14T10:29:47.889Z,15.50
2023-04-14T10:34:59.662Z,15.58
2023-04-14T10:40:06.454Z,15.68
2023-04-14T10:45:12.232Z,15.75
2023-04-14T10:50:18.316Z,15.87
2023-04-14T10:55:24.006Z,15.98
2023-04-14T11:00:31.368Z,16.00
2023-04-14T11:05:36.254Z,16.07
2023-04-14T11:10:41.376Z,16.15
2023-04-14T11:15:50.783Z,16.15
2023-04-14T11:21:01.094Z,16.14
2023-04-14T11:26:07.690Z,16.15
2023-04-14T11:31:13.301Z,16.16
2023-04-14T11:36:17.504Z,16.24
2023-04-14T11:41:21.902Z,16.32
2023-04-14T11:46:25.988Z,16.39
2023-04-14T11:51:31.859Z,16.44
2023-04-14T11:56:36.776Z,16.40
2023-04-14T12:01:40.584Z,16.40
2023-04-14T12:06:45.016Z,16.45
2023-04-14T12:11:55.305Z,16.50
2023-04-14T12:16:59.308Z,16.54
2023-04-14T12:22:03.065Z,16.58
2023-04-14T12:27:08.924Z,16.66
2023-04-14T12:32:13.791Z,16.73
2023-04-14T12:37:17.977Z,16.82
2023-04-14T12:42:21.707Z,16.87
2023-04-14T12:47:30.156Z,16.91
2023-04-14T12:52:34.582Z,16.95
2023-04-14T12:57:38.418Z,16.89
2023-04-14T13:02:44.835Z,16.82
2023-04-14T13:07:50.201Z,16.86
2023-04-14T13:12:53.842Z,16.91
2023-04-14T13:17:59.929Z,16.94
2023-04-14T13:23:03.769Z,16.98
2023-04-14T13:28:07.568Z,16.93
2023-04-14T13:33:11.684Z,16.89
2023-04-14T13:38:15.866Z,16.78
2023-04-14T13:43:19.654Z,16.69
2023-04-14T13:48:23.621Z,16.61
2023-04-14T13:53:27.335Z,16.51
2023-04-14T13:58:31.722Z,16.41
2023-04-14T14:03:35.392Z,16.33
2023-04-14T14:08:41.908Z,16.29
2023-04-14T14:13:44.954Z,16.27
2023-04-14T14:18:48.530Z,16.24
2023-04-14T14:23:52.310Z,16.21
2023-04-14T14:28:56.190Z,16.17
2023-04-14T14:34:00.207Z,16.14
2023-04-14T14:39:04.632Z,16.09
2023-04-14T14:44:08.427Z,16.02
2023-04-14T14:49:15.908Z,15.97
2023-04-14T14:54:19.615Z,15.90
2023-04-14T14:59:23.381Z,15.85
2023-04-14T15:04:27.367Z,15.79
2023-04-14T15:09:31.998Z,15.73
2023-04-14T15:14:35.885Z,15.68
2023-04-14T15:19:40.936Z,15.61
2023-04-14T15:24:45.947Z,15.55
2023-04-14T15:29:49.780Z,15.49
2023-04-14T15:34:54.417Z,15.44
2023-04-14T15:39:58.484Z,15.39
2023-04-14T15:45:02.294Z,15.32
2023-04-14T15:50:09.901Z,15.27
2023-04-14T15:55:14.995Z,15.22
2023-04-14T16:00:22.007Z,15.19
2023-04-14T16:05:25.755Z,15.15
2023-04-14T16:10:29.828Z,15.13
2023-04-14T16:15:34.423Z,15.10
2023-04-14T16:20:37.998Z,15.03
2023-04-14T16:25:42.073Z,14.98
2023-04-14T16:30:45.962Z,14.92
2023-04-14T16:35:49.746Z,14.82
2023-04-14T16:40:56.959Z,14.74
2023-04-14T16:46:04.736Z,14.66
2023-04-14T16:51:10.076Z,14.58
2023-04-14T16:56:14.774Z,14.50
2023-04-14T17:01:19.849Z,14.45
2023-04-14T17:06:23.744Z,14.39
2023-04-14T17:11:27.616Z,14.32
2023-04-14T17:16:31.954Z,14.27
2023-04-14T17:21:35.727Z,14.22
2023-04-14T17:26:39.671Z,14.17
2023-04-14T17:31:44.550Z,14.11
2023-04-14T17:36:49.446Z,14.03
2023-04-14T17:41:54.384Z,13.91
2023-04-14T17:47:00.324Z,13.81
2023-04-14T17:52:04.190Z,13.74
2023-04-14T17:57:09.539Z,13.67
2023-04-14T18:02:15.037Z,13.62
2023-04-14T18:07:19.339Z,13.57
2023-04-14T18:12:23.450Z,13.54
2023-04-14T18:32:51.506Z,13.39
2023-04-14T18:37:59.099Z,13.33
2023-04-14T18:43:06.371Z,13.27
2023-04-14T18:48:14.612Z,13.21
2023-04-14T18:53:21.933Z,13.14
2023-04-14T18:58:30.610Z,13.10
2023-04-14T19:03:38.794Z,13.03
2023-04-14T19:08:46.462Z,12.97
2023-04-14T19:13:55.013Z,12.91
2023-04-14T19:19:02.745Z,12.85
2023-04-14T19:24:10.418Z,12.79
2023-04-14T19:29:19.042Z,12.74
2023-04-14T19:34:27.766Z,12.69
2023-04-14T19:39:36.159Z,12.65
2023-04-14T19:44:43.718Z,12.61
2023-04-14T19:49:51.781Z,12.58
2023-04-14T19:54:59.560Z,12.56
2023-04-14T20:00:09.342Z,12.54
2023-04-14T20:05:17.143Z,12.53
2023-04-14T20:10:24.635Z,12.54
2023-04-14T20:15:32.389Z,12.55
2023-04-14T20:20:41.972Z,12.52
2023-04-14T20:25:50.977Z,12.49
2023-04-14T20:30:58.500Z,12.45
2023-04-14T20:36:07.080Z,12.41
2023-04-14T20:41:14.923Z,12.36
2023-04-14T20:46:23.486Z,12.30
2023-04-14T20:51:32.573Z,12.23
2023-04-14T20:56:40.785Z,12.16
2023-04-14T21:01:49.453Z,12.07
2023-04-14T21:06:57.754Z,12.00
2023-04-14T21:12:15.727Z,11.95
2023-04-14T21:17:24.250Z,11.92
2023-04-14T21:22:32.461Z,11.90
2023-04-14T21:27:39.863Z,11.86
2023-04-14T21:32:47.439Z,11.79
2023-04-14T21:37:55.344Z,11.72
2023-04-14T21:43:02.890Z,11.67
2023-04-14T21:48:10.886Z,11.66
2023-04-14T21:53:19.452Z,11.64
2023-04-14T21:58:27.439Z,11.62
2023-04-14T22:03:37.573Z,11.62
2023-04-14T22:08:45.145Z,11.59
2023-04-14T22:13:52.815Z,11.54
2023-04-14T22:19:01.122Z,11.51
2023-04-14T22:24:10.295Z,11.46
2023-04-14T22:29:17.970Z,11.41
2023-04-14T22:34:25.605Z,11.43
2023-04-14T22:39:33.238Z,11.45
2023-04-14T22:44:41.341Z,11.41
2023-04-14T22:49:48.799Z,11.37
2023-04-14T22:54:56.730Z,11.33
2023-04-14T23:00:09.250Z,11.28
2023-04-14T23:05:17.209Z,11.23
2023-04-14T23:10:24.922Z,11.16
2023-04-14T23:15:33.016Z,11.09
2023-04-14T23:20:40.798Z,11.02
2023-04-14T23:25:48.261Z,10.95
2023-04-14T23:30:56.121Z,10.90
2023-04-14T23:36:03.498Z,10.85
2023-04-14T23:41:11.647Z,10.83
2023-04-14T23:46:19.395Z,10.81
2023-04-14T23:51:27.162Z,10.77
2023-04-14T23:56:34.794Z,10.72
